sensor_id;sensor_type;location;lat;lon;timestamp;temperature;humidity
26541;DHT22;14206;50.202;10.948;2023-06-14T00:02:14;16.10;68.90
26541;DHT22;14206;50.202;10.948;2023-06-14T00:04:42;16.00;68.70
26541;DHT22;14206;50.202;10.948;2023-06-14T00:07:09;16.00;68.70
26541;DHT22;14206;50.202;10.948;2023-06-14T00:09:39;16.00;69.60
26541;DHT22;14206;50.202;10.948;2023-06-14T00:12:06;16.00;70.10
26541;DHT22;14206;50.202;10.948;2023-06-14T00:14:33;15.90;70.30
26541;DHT22;14206;50.202;10.948;2023-06-14T00:17:00;15.80;70.00
26541;DHT22;14206;50.202;10.948;2023-06-14T00:19:28;15.70;70.50
26541;DHT22;14206;50.202;10.948;2023-06-14T00:21:56;15.70;70.10
26541;DHT22;14206;50.202;10.948;2023-06-14T00:24:23;15.60;71.00
26541;DHT22;14206;50.202;10.948;2023-06-14T00:26:50;15.50;71.10
26541;DHT22;14206;50.202;10.948;2023-06-14T00:29:17;15.50;70.90
26541;DHT22;14206;50.202;10.948;2023-06-14T00:31:44;15.40;71.30
26541;DHT22;14206;50.202;10.948;2023-06-14T00:34:11;15.30;71.60
26541;DHT22;14206;50.202;10.948;2023-06-14T00:36:40;15.30;71.80
26541;DHT22;14206;50.202;10.948;2023-06-14T00:39:07;15.20;71.90
26541;DHT22;14206;50.202;10.948;2023-06-14T00:41:35;15.20;72.20
26541;DHT22;14206;50.202;10.948;2023-06-14T00:44:02;15.20;72.80
26541;DHT22;14206;50.202;10.948;2023-06-14T00:46:29;15.10;73.00
26541;DHT22;14206;50.202;10.948;2023-06-14T00:48:56;15.10;72.80
26541;DHT22;14206;50.202;10.948;2023-06-14T00:51:25;15.10;72.90
26541;DHT22;14206;50.202;10.948;2023-06-14T00:53:53;15.00;72.40
26541;DHT22;14206;50.202;10.948;2023-06-14T00:56:20;15.00;72.90
26541;DHT22;14206;50.202;10.948;2023-06-14T00:58:50;14.90;72.80
26541;DHT22;14206;50.202;10.948;2023-06-14T01:01:17;14.80;73.20
26541;DHT22;14206;50.202;10.948;2023-06-14T01:03:45;14.80;73.40
26541;DHT22;14206;50.202;10.948;2023-06-14T01:09:35;14.70;73.80
26541;DHT22;14206;50.202;10.948;2023-06-14T01:15:03;14.60;74.40
26541;DHT22;14206;50.202;10.948;2023-06-14T01:17:30;14.50;74.80
26541;DHT22;14206;50.202;10.948;2023-06-14T01:20:01;14.50;74.90
26541;DHT22;14206;50.202;10.948;2023-06-14T01:22:29;14.50;74.60
26541;DHT22;14206;50.202;10.948;2023-06-14T01:24:56;14.40;74.70
26541;DHT22;14206;50.202;10.948;2023-06-14T01:27:26;14.40;74.50
26541;DHT22;14206;50.202;10.948;2023-06-14T01:29:55;14.40;74.30
26541;DHT22;14206;50.202;10.948;2023-06-14T01:32:29;14.40;74.70
26541;DHT22;14206;50.202;10.948;2023-06-14T01:34:56;14.40;74.50
26541;DHT22;14206;50.202;10.948;2023-06-14T01:37:27;14.40;74.90
26541;DHT22;14206;50.202;10.948;2023-06-14T01:39:55;14.40;74.70
26541;DHT22;14206;50.202;10.948;2023-06-14T01:42:23;14.40;74.50
26541;DHT22;14206;50.202;10.948;2023-06-14T01:44:51;14.40;74.40
26541;DHT22;14206;50.202;10.948;2023-06-14T01:47:20;14.40;74.40
26541;DHT22;14206;50.202;10.948;2023-06-14T01:49:48;14.30;74.90
26541;DHT22;14206;50.202;10.948;2023-06-14T01:52:14;14.30;74.80
26541;DHT22;14206;50.202;10.948;2023-06-14T01:54:42;14.30;74.80
26541;DHT22;14206;50.202;10.948;2023-06-14T01:57:10;14.30;75.20
26541;DHT22;14206;50.202;10.948;2023-06-14T01:59:37;14.30;75.20
26541;DHT22;14206;50.202;10.948;2023-06-14T02:02:04;14.30;75.00
26541;DHT22;14206;50.202;10.948;2023-06-14T02:04:32;14.30;75.10
26541;DHT22;14206;50.202;10.948;2023-06-14T02:06:59;14.30;75.10
26541;DHT22;14206;50.202;10.948;2023-06-14T02:09:27;14.30;74.90
26541;DHT22;14206;50.202;10.948;2023-06-14T02:11:54;14.30;75.20
26541;DHT22;14206;50.202;10.948;2023-06-14T02:14:21;14.30;75.30
26541;DHT22;14206;50.202;10.948;2023-06-14T02:16:48;14.20;75.50
26541;DHT22;14206;50.202;10.948;2023-06-14T02:19:19;14.20;75.70
26541;DHT22;14206;50.202;10.948;2023-06-14T02:21:46;14.10;75.90
26541;DHT22;14206;50.202;10.948;2023-06-14T02:24:13;14.10;76.10
26541;DHT22;14206;50.202;10.948;2023-06-14T02:26:41;14.10;76.20
26541;DHT22;14206;50.202;10.948;2023-06-14T02:29:12;14.00;76.30
26541;DHT22;14206;50.202;10.948;2023-06-14T02:31:41;14.00;76.60
26541;DHT22;14206;50.202;10.948;2023-06-14T02:34:08;14.00;76.70
26541;DHT22;14206;50.202;10.948;2023-06-14T02:36:35;14.00;76.90
26541;DHT22;14206;50.202;10.948;2023-06-14T02:39:09;13.90;76.90
26541;DHT22;14206;50.202;10.948;2023-06-14T02:41:36;13.90;77.00
26541;DHT22;14206;50.202;10.948;2023-06-14T02:44:04;13.90;77.20
26541;DHT22;14206;50.202;10.948;2023-06-14T02:46:31;13.90;77.60
26541;DHT22;14206;50.202;10.948;2023-06-14T02:48:59;13.80;77.90
26541;DHT22;14206;50.202;10.948;2023-06-14T02:51:26;13.80;78.00
26541;DHT22;14206;50.202;10.948;2023-06-14T02:53:53;13.90;77.80
26541;DHT22;14206;50.202;10.948;2023-06-14T02:56:20;13.90;77.80
26541;DHT22;14206;50.202;10.948;2023-06-14T02:58:50;13.90;77.60
26541;DHT22;14206;50.202;10.948;2023-06-14T03:01:18;13.90;77.50
26541;DHT22;14206;50.202;10.948;2023-06-14T03:03:47;13.90;77.70
26541;DHT22;14206;50.202;10.948;2023-06-14T03:06:14;13.90;77.70
26541;DHT22;14206;50.202;10.948;2023-06-14T03:08:45;13.90;77.50
26541;DHT22;14206;50.202;10.948;2023-06-14T03:11:16;13.90;77.60
26541;DHT22;14206;50.202;10.948;2023-06-14T03:13:43;13.90;77.70
26541;DHT22;14206;50.202;10.948;2023-06-14T03:16:12;13.90;77.70
26541;DHT22;14206;50.202;10.948;2023-06-14T03:18:40;13.80;77.90
26541;DHT22;14206;50.202;10.948;2023-06-14T03:21:07;13.80;78.10
26541;DHT22;14206;50.202;10.948;2023-06-14T03:23:37;13.80;77.90
26541;DHT22;14206;50.202;10.948;2023-06-14T03:26:04;13.80;78.10
26541;DHT22;14206;50.202;10.948;2023-06-14T03:28:32;13.70;78.10
26541;DHT22;14206;50.202;10.948;2023-06-14T03:30:59;13.70;78.10
26541;DHT22;14206;50.202;10.948;2023-06-14T03:33:29;13.70;78.20
26541;DHT22;14206;50.202;10.948;2023-06-14T03:35:56;13.60;78.50
26541;DHT22;14206;50.202;10.948;2023-06-14T03:38:24;13.60;78.80
26541;DHT22;14206;50.202;10.948;2023-06-14T03:40:51;13.60;78.90
26541;DHT22;14206;50.202;10.948;2023-06-14T03:43:18;13.60;79.00
26541;DHT22;14206;50.202;10.948;2023-06-14T03:45:45;13.60;79.40
26541;DHT22;14206;50.202;10.948;2023-06-14T03:48:13;13.50;79.40
26541;DHT22;14206;50.202;10.948;2023-06-14T03:50:40;13.60;79.30
26541;DHT22;14206;50.202;10.948;2023-06-14T03:53:09;13.60;79.50
26541;DHT22;14206;50.202;10.948;2023-06-14T03:55:39;13.70;79.40
26541;DHT22;14206;50.202;10.948;2023-06-14T03:58:11;13.70;79.30
26541;DHT22;14206;50.202;10.948;2023-06-14T04:00:39;13.80;79.40
26541;DHT22;14206;50.202;10.948;2023-06-14T04:03:07;13.80;79.30
26541;DHT22;14206;50.202;10.948;2023-06-14T04:05:35;13.90;79.30
26541;DHT22;14206;50.202;10.948;2023-06-14T04:08:02;13.90;79.10
26541;DHT22;14206;50.202;10.948;2023-06-14T04:10:31;14.00;79.10
26541;DHT22;14206;50.202;10.948;2023-06-14T04:12:58;14.00;79.00
26541;DHT22;14206;50.202;10.948;2023-06-14T04:15:27;14.00;78.70
26541;DHT22;14206;50.202;10.948;2023-06-14T04:18:04;14.10;78.90
26541;DHT22;14206;50.202;10.948;2023-06-14T04:20:31;14.10;78.90
26541;DHT22;14206;50.202;10.948;2023-06-14T04:23:11;14.10;78.80
26541;DHT22;14206;50.202;10.948;2023-06-14T04:25:39;14.20;78.90
26541;DHT22;14206;50.202;10.948;2023-06-14T04:28:07;14.20;78.70
26541;DHT22;14206;50.202;10.948;2023-06-14T04:30:38;14.20;78.60
26541;DHT22;14206;50.202;10.948;2023-06-14T04:33:08;14.30;78.70
26541;DHT22;14206;50.202;10.948;2023-06-14T04:35:37;14.30;78.70
26541;DHT22;14206;50.202;10.948;2023-06-14T04:38:04;14.30;78.70
26541;DHT22;14206;50.202;10.948;2023-06-14T04:40:32;14.40;78.60
26541;DHT22;14206;50.202;10.948;2023-06-14T04:43:00;14.50;78.40
26541;DHT22;14206;50.202;10.948;2023-06-14T04:45:28;14.50;78.40
26541;DHT22;14206;50.202;10.948;2023-06-14T04:47:59;14.60;78.20
26541;DHT22;14206;50.202;10.948;2023-06-14T04:50:27;14.80;78.10
26541;DHT22;14206;50.202;10.948;2023-06-14T04:52:56;14.80;77.70
26541;DHT22;14206;50.202;10.948;2023-06-14T04:55:24;14.90;77.70
26541;DHT22;14206;50.202;10.948;2023-06-14T04:57:51;15.00;77.10
26541;DHT22;14206;50.202;10.948;2023-06-14T05:00:20;15.10;76.60
26541;DHT22;14206;50.202;10.948;2023-06-14T05:02:47;15.20;76.30
26541;DHT22;14206;50.202;10.948;2023-06-14T05:05:15;15.30;76.30
26541;DHT22;14206;50.202;10.948;2023-06-14T05:07:44;15.40;76.30
26541;DHT22;14206;50.202;10.948;2023-06-14T05:10:11;15.50;76.40
26541;DHT22;14206;50.202;10.948;2023-06-14T05:12:38;15.60;75.70
26541;DHT22;14206;50.202;10.948;2023-06-14T05:15:08;15.70;75.10
26541;DHT22;14206;50.202;10.948;2023-06-14T05:17:36;15.90;75.10
26541;DHT22;14206;50.202;10.948;2023-06-14T05:20:03;16.00;74.10
26541;DHT22;14206;50.202;10.948;2023-06-14T05:22:30;16.10;73.60
26541;DHT22;14206;50.202;10.948;2023-06-14T05:24:57;16.20;73.10
26541;DHT22;14206;50.202;10.948;2023-06-14T05:27:25;16.40;73.30
26541;DHT22;14206;50.202;10.948;2023-06-14T05:29:52;16.60;73.10
26541;DHT22;14206;50.202;10.948;2023-06-14T05:32:22;16.80;72.50
26541;DHT22;14206;50.202;10.948;2023-06-14T05:34:49;17.00;72.40
26541;DHT22;14206;50.202;10.948;2023-06-14T05:37:16;17.20;70.60
26541;DHT22;14206;50.202;10.948;2023-06-14T05:39:44;17.50;70.00
26541;DHT22;14206;50.202;10.948;2023-06-14T05:42:11;18.00;69.70
26541;DHT22;14206;50.202;10.948;2023-06-14T05:44:38;18.80;68.20
26541;DHT22;14206;50.202;10.948;2023-06-14T05:47:05;19.70;65.40
26541;DHT22;14206;50.202;10.948;2023-06-14T05:49:32;20.50;62.70
26541;DHT22;14206;50.202;10.948;2023-06-14T05:51:58;21.20;61.00
26541;DHT22;14206;50.202;10.948;2023-06-14T05:54:25;21.70;59.70
26541;DHT22;14206;50.202;10.948;2023-06-14T05:56:52;22.30;58.70
26541;DHT22;14206;50.202;10.948;2023-06-14T05:59:19;22.90;58.00
26541;DHT22;14206;50.202;10.948;2023-06-14T06:01:46;23.50;56.40
26541;DHT22;14206;50.202;10.948;2023-06-14T06:04:13;24.10;55.60
26541;DHT22;14206;50.202;10.948;2023-06-14T06:06:40;24.60;54.10
26541;DHT22;14206;50.202;10.948;2023-06-14T06:09:07;25.00;53.60
26541;DHT22;14206;50.202;10.948;2023-06-14T06:11:33;25.40;52.10
26541;DHT22;14206;50.202;10.948;2023-06-14T06:14:14;25.70;50.80
26541;DHT22;14206;50.202;10.948;2023-06-14T06:16:41;26.00;51.20
26541;DHT22;14206;50.202;10.948;2023-06-14T06:19:08;26.40;50.30
26541;DHT22;14206;50.202;10.948;2023-06-14T06:21:35;26.90;49.80
26541;DHT22;14206;50.202;10.948;2023-06-14T06:24:02;27.00;48.50
26541;DHT22;14206;50.202;10.948;2023-06-14T06:26:32;27.30;49.40
26541;DHT22;14206;50.202;10.948;2023-06-14T06:28:59;27.70;47.70
26541;DHT22;14206;50.202;10.948;2023-06-14T06:31:26;27.70;46.90
26541;DHT22;14206;50.202;10.948;2023-06-14T06:33:54;27.70;46.50
26541;DHT22;14206;50.202;10.948;2023-06-14T06:36:22;27.60;46.80
26541;DHT22;14206;50.202;10.948;2023-06-14T06:38:49;27.70;47.70
26541;DHT22;14206;50.202;10.948;2023-06-14T06:41:15;27.90;47.40
26541;DHT22;14206;50.202;10.948;2023-06-14T06:43:42;28.00;47.50
26541;DHT22;14206;50.202;10.948;2023-06-14T06:46:09;28.20;46.40
26541;DHT22;14206;50.202;10.948;2023-06-14T06:48:36;28.30;46.50
26541;DHT22;14206;50.202;10.948;2023-06-14T06:51:03;28.50;46.20
26541;DHT22;14206;50.202;10.948;2023-06-14T06:53:30;28.70;46.70
26541;DHT22;14206;50.202;10.948;2023-06-14T06:56:08;29.00;45.80
26541;DHT22;14206;50.202;10.948;2023-06-14T06:58:35;29.50;45.10
26541;DHT22;14206;50.202;10.948;2023-06-14T07:01:02;29.60;43.50
26541;DHT22;14206;50.202;10.948;2023-06-14T07:03:29;29.70;43.50
26541;DHT22;14206;50.202;10.948;2023-06-14T07:05:56;30.00;43.30
26541;DHT22;14206;50.202;10.948;2023-06-14T07:08:23;30.10;42.90
26541;DHT22;14206;50.202;10.948;2023-06-14T07:10:50;30.10;41.40
26541;DHT22;14206;50.202;10.948;2023-06-14T07:13:17;30.10;41.90
26541;DHT22;14206;50.202;10.948;2023-06-14T07:15:44;30.10;41.60
26541;DHT22;14206;50.202;10.948;2023-06-14T07:18:11;30.20;42.30
26541;DHT22;14206;50.202;10.948;2023-06-14T07:20:42;30.80;41.90
26541;DHT22;14206;50.202;10.948;2023-06-14T07:23:09;31.20;42.00
26541;DHT22;14206;50.202;10.948;2023-06-14T07:25:37;31.70;41.40
26541;DHT22;14206;50.202;10.948;2023-06-14T07:28:04;32.10;41.00
26541;DHT22;14206;50.202;10.948;2023-06-14T07:30:31;32.20;39.70
26541;DHT22;14206;50.202;10.948;2023-06-14T07:32:58;32.00;38.90
26541;DHT22;14206;50.202;10.948;2023-06-14T07:35:25;31.80;39.90
26541;DHT22;14206;50.202;10.948;2023-06-14T07:37:51;31.70;40.40
26541;DHT22;14206;50.202;10.948;2023-06-14T07:40:19;31.60;39.40
26541;DHT22;14206;50.202;10.948;2023-06-14T07:42:46;31.20;39.40
26541;DHT22;14206;50.202;10.948;2023-06-14T07:45:14;31.10;39.90
26541;DHT22;14206;50.202;10.948;2023-06-14T07:47:41;30.90;40.30
26541;DHT22;14206;50.202;10.948;2023-06-14T07:50:09;30.90;40.10
26541;DHT22;14206;50.202;10.948;2023-06-14T07:52:37;31.00;39.80
26541;DHT22;14206;50.202;10.948;2023-06-14T07:55:05;31.20;39.80
26541;DHT22;14206;50.202;10.948;2023-06-14T07:57:32;31.60;39.60
26541;DHT22;14206;50.202;10.948;2023-06-14T07:59:59;32.10;38.60
26541;DHT22;14206;50.202;10.948;2023-06-14T08:02:26;32.70;38.30
26541;DHT22;14206;50.202;10.948;2023-06-14T08:04:53;33.30;36.90
26541;DHT22;14206;50.202;10.948;2023-06-14T08:07:20;33.80;36.90
26541;DHT22;14206;50.202;10.948;2023-06-14T08:09:47;34.10;35.70
26541;DHT22;14206;50.202;10.948;2023-06-14T08:12:14;34.50;35.30
26541;DHT22;14206;50.202;10.948;2023-06-14T08:14:42;35.00;35.60
26541;DHT22;14206;50.202;10.948;2023-06-14T08:17:09;35.20;33.80
26541;DHT22;14206;50.202;10.948;2023-06-14T08:19:36;35.50;34.40
26541;DHT22;14206;50.202;10.948;2023-06-14T08:22:03;35.90;34.30
26541;DHT22;14206;50.202;10.948;2023-06-14T08:24:30;36.30;33.50
26541;DHT22;14206;50.202;10.948;2023-06-14T08:26:57;36.30;33.50
26541;DHT22;14206;50.202;10.948;2023-06-14T08:29:24;36.50;33.40
26541;DHT22;14206;50.202;10.948;2023-06-14T08:31:51;36.60;32.60
26541;DHT22;14206;50.202;10.948;2023-06-14T08:34:18;36.90;33.00
26541;DHT22;14206;50.202;10.948;2023-06-14T08:36:45;37.30;32.40
26541;DHT22;14206;50.202;10.948;2023-06-14T08:39:12;37.60;32.10
26541;DHT22;14206;50.202;10.948;2023-06-14T08:41:38;37.90;31.90
26541;DHT22;14206;50.202;10.948;2023-06-14T08:44:05;38.20;31.40
26541;DHT22;14206;50.202;10.948;2023-06-14T08:46:34;38.30;30.60
26541;DHT22;14206;50.202;10.948;2023-06-14T08:49:01;38.40;30.70
26541;DHT22;14206;50.202;10.948;2023-06-14T08:51:31;38.70;30.30
26541;DHT22;14206;50.202;10.948;2023-06-14T08:54:01;38.80;30.60
26541;DHT22;14206;50.202;10.948;2023-06-14T08:56:28;39.10;30.00
26541;DHT22;14206;50.202;10.948;2023-06-14T08:58:57;39.00;29.60
26541;DHT22;14206;50.202;10.948;2023-06-14T09:01:24;39.00;30.00
26541;DHT22;14206;50.202;10.948;2023-06-14T09:03:51;38.90;30.00
26541;DHT22;14206;50.202;10.948;2023-06-14T09:06:19;38.80;29.80
26541;DHT22;14206;50.202;10.948;2023-06-14T09:08:49;39.00;29.60
26541;DHT22;14206;50.202;10.948;2023-06-14T09:11:18;38.90;30.40
26541;DHT22;14206;50.202;10.948;2023-06-14T09:13:46;38.80;29.30
26541;DHT22;14206;50.202;10.948;2023-06-14T09:16:13;39.00;29.80
26541;DHT22;14206;50.202;10.948;2023-06-14T09:18:45;39.00;29.60
26541;DHT22;14206;50.202;10.948;2023-06-14T09:21:15;39.10;29.70
26541;DHT22;14206;50.202;10.948;2023-06-14T09:23:44;39.10;29.40
26541;DHT22;14206;50.202;10.948;2023-06-14T09:26:18;39.30;29.40
26541;DHT22;14206;50.202;10.948;2023-06-14T09:28:50;39.50;29.20
26541;DHT22;14206;50.202;10.948;2023-06-14T09:31:19;39.80;28.90
26541;DHT22;14206;50.202;10.948;2023-06-14T09:33:50;39.70;28.90
26541;DHT22;14206;50.202;10.948;2023-06-14T09:36:25;38.90;28.60
26541;DHT22;14206;50.202;10.948;2023-06-14T09:38:56;37.60;29.10
26541;DHT22;14206;50.202;10.948;2023-06-14T09:41:38;36.70;30.70
26541;DHT22;14206;50.202;10.948;2023-06-14T09:44:07;35.10;31.10
26541;DHT22;14206;50.202;10.948;2023-06-14T09:46:40;34.00;32.70
26541;DHT22;14206;50.202;10.948;2023-06-14T09:49:08;34.30;34.00
26541;DHT22;14206;50.202;10.948;2023-06-14T09:51:45;35.10;33.00
26541;DHT22;14206;50.202;10.948;2023-06-14T09:54:15;35.90;32.80
26541;DHT22;14206;50.202;10.948;2023-06-14T09:56:47;36.50;32.30
26541;DHT22;14206;50.202;10.948;2023-06-14T09:59:17;37.10;31.70
26541;DHT22;14206;50.202;10.948;2023-06-14T10:01:47;37.40;31.10
26541;DHT22;14206;50.202;10.948;2023-06-14T10:04:15;37.50;30.30
26541;DHT22;14206;50.202;10.948;2023-06-14T10:06:45;37.90;30.40
26541;DHT22;14206;50.202;10.948;2023-06-14T10:09:13;38.30;29.80
26541;DHT22;14206;50.202;10.948;2023-06-14T10:11:41;38.40;30.30
26541;DHT22;14206;50.202;10.948;2023-06-14T10:14:12;38.50;30.00
26541;DHT22;14206;50.202;10.948;2023-06-14T10:17:16;38.50;29.50
26541;DHT22;14206;50.202;10.948;2023-06-14T10:19:50;38.40;29.10
26541;DHT22;14206;50.202;10.948;2023-06-14T10:22:29;38.70;29.30
26541;DHT22;14206;50.202;10.948;2023-06-14T10:24:57;38.70;29.40
26541;DHT22;14206;50.202;10.948;2023-06-14T10:27:24;38.70;29.50
26541;DHT22;14206;50.202;10.948;2023-06-14T10:32:24;37.90;29.60
26541;DHT22;14206;50.202;10.948;2023-06-14T10:34:57;36.70;30.30
26541;DHT22;14206;50.202;10.948;2023-06-14T10:37:24;36.70;31.20
26541;DHT22;14206;50.202;10.948;2023-06-14T10:39:51;36.40;31.50
26541;DHT22;14206;50.202;10.948;2023-06-14T10:42:20;35.50;31.60
26541;DHT22;14206;50.202;10.948;2023-06-14T10:44:56;34.10;32.50
26541;DHT22;14206;50.202;10.948;2023-06-14T10:47:31;33.90;34.10
26541;DHT22;14206;50.202;10.948;2023-06-14T10:52:28;34.90;33.00
26541;DHT22;14206;50.202;10.948;2023-06-14T10:54:59;35.80;33.30
26541;DHT22;14206;50.202;10.948;2023-06-14T10:57:28;35.80;31.60
26541;DHT22;14206;50.202;10.948;2023-06-14T10:59:55;35.40;33.00
26541;DHT22;14206;50.202;10.948;2023-06-14T11:04:52;36.80;31.90
26541;DHT22;14206;50.202;10.948;2023-06-14T11:10:10;37.70;29.50
26541;DHT22;14206;50.202;10.948;2023-06-14T11:12:41;36.00;30.20
26541;DHT22;14206;50.202;10.948;2023-06-14T11:15:11;34.40;32.40
26541;DHT22;14206;50.202;10.948;2023-06-14T11:17:38;34.80;32.30
26541;DHT22;14206;50.202;10.948;2023-06-14T11:20:12;35.20;32.50
26541;DHT22;14206;50.202;10.948;2023-06-14T11:22:43;34.30;32.60
26541;DHT22;14206;50.202;10.948;2023-06-14T11:25:17;33.20;34.00
26541;DHT22;14206;50.202;10.948;2023-06-14T11:27:45;32.30;34.60
26541;DHT22;14206;50.202;10.948;2023-06-14T11:30:13;33.10;35.00
26541;DHT22;14206;50.202;10.948;2023-06-14T11:32:40;33.70;33.70
26541;DHT22;14206;50.202;10.948;2023-06-14T11:35:08;33.80;33.70
26541;DHT22;14206;50.202;10.948;2023-06-14T11:37:36;33.60;33.50
26541;DHT22;14206;50.202;10.948;2023-06-14T11:40:07;32.80;33.90
26541;DHT22;14206;50.202;10.948;2023-06-14T11:42:41;32.80;34.50
26541;DHT22;14206;50.202;10.948;2023-06-14T11:45:10;32.80;34.60
26541;DHT22;14206;50.202;10.948;2023-06-14T11:47:39;33.60;34.80
26541;DHT22;14206;50.202;10.948;2023-06-14T11:50:07;34.50;34.70
26541;DHT22;14206;50.202;10.948;2023-06-14T11:52:37;35.40;33.40
26541;DHT22;14206;50.202;10.948;2023-06-14T11:55:06;36.20;32.70
26541;DHT22;14206;50.202;10.948;2023-06-14T11:57:36;36.30;32.10
26541;DHT22;14206;50.202;10.948;2023-06-14T12:00:04;36.60;31.30
26541;DHT22;14206;50.202;10.948;2023-06-14T12:02:42;37.10;30.50
26541;DHT22;14206;50.202;10.948;2023-06-14T12:05:09;36.70;31.20
26541;DHT22;14206;50.202;10.948;2023-06-14T12:07:39;35.50;31.50
26541;DHT22;14206;50.202;10.948;2023-06-14T12:10:09;33.90;32.40
26541;DHT22;14206;50.202;10.948;2023-06-14T12:12:40;33.00;34.10
26541;DHT22;14206;50.202;10.948;2023-06-14T12:15:08;32.10;34.60
26541;DHT22;14206;50.202;10.948;2023-06-14T12:17:36;31.20;36.00
26541;DHT22;14206;50.202;10.948;2023-06-14T12:20:06;31.40;36.70
26541;DHT22;14206;50.202;10.948;2023-06-14T12:22:50;32.10;36.30
26541;DHT22;14206;50.202;10.948;2023-06-14T12:25:43;32.50;35.40
26541;DHT22;14206;50.202;10.948;2023-06-14T12:28:14;31.60;34.90
26541;DHT22;14206;50.202;10.948;2023-06-14T12:30:53;30.50;36.80
26541;DHT22;14206;50.202;10.948;2023-06-14T12:33:25;29.70;37.80
26541;DHT22;14206;50.202;10.948;2023-06-14T12:36:13;29.10;38.40
26541;DHT22;14206;50.202;10.948;2023-06-14T12:38:39;28.70;39.10
26541;DHT22;14206;50.202;10.948;2023-06-14T12:41:06;28.60;40.40
26541;DHT22;14206;50.202;10.948;2023-06-14T12:43:34;28.60;41.00
26541;DHT22;14206;50.202;10.948;2023-06-14T12:46:01;28.60;41.40
26541;DHT22;14206;50.202;10.948;2023-06-14T12:48:28;28.70;40.40
26541;DHT22;14206;50.202;10.948;2023-06-14T12:50:58;28.70;40.40
26541;DHT22;14206;50.202;10.948;2023-06-14T12:53:25;28.40;40.40
26541;DHT22;14206;50.202;10.948;2023-06-14T12:55:52;28.10;40.80
26541;DHT22;14206;50.202;10.948;2023-06-14T12:58:19;27.90;40.50
26541;DHT22;14206;50.202;10.948;2023-06-14T13:00:47;27.70;40.60
26541;DHT22;14206;50.202;10.948;2023-06-14T13:03:15;27.50;41.40
26541;DHT22;14206;50.202;10.948;2023-06-14T13:05:42;27.40;42.10
26541;DHT22;14206;50.202;10.948;2023-06-14T13:08:11;27.30;43.20
26541;DHT22;14206;50.202;10.948;2023-06-14T13:10:38;27.40;43.30
26541;DHT22;14206;50.202;10.948;2023-06-14T13:13:05;27.40;43.30
26541;DHT22;14206;50.202;10.948;2023-06-14T13:15:34;27.40;43.10
26541;DHT22;14206;50.202;10.948;2023-06-14T13:18:03;27.30;42.80
26541;DHT22;14206;50.202;10.948;2023-06-14T13:20:30;27.20;42.50
26541;DHT22;14206;50.202;10.948;2023-06-14T13:22:57;27.00;43.00
26541;DHT22;14206;50.202;10.948;2023-06-14T13:25:24;26.90;43.30
26541;DHT22;14206;50.202;10.948;2023-06-14T13:27:51;26.60;42.80
26541;DHT22;14206;50.202;10.948;2023-06-14T13:30:18;26.50;43.60
26541;DHT22;14206;50.202;10.948;2023-06-14T13:32:45;26.50;44.40
26541;DHT22;14206;50.202;10.948;2023-06-14T13:35:16;26.70;45.00
26541;DHT22;14206;50.202;10.948;2023-06-14T13:37:43;26.80;43.80
26541;DHT22;14206;50.202;10.948;2023-06-14T13:40:11;26.60;42.80
26541;DHT22;14206;50.202;10.948;2023-06-14T13:42:37;26.30;43.00
26541;DHT22;14206;50.202;10.948;2023-06-14T13:45:05;26.00;44.00
26541;DHT22;14206;50.202;10.948;2023-06-14T13:47:32;25.80;44.30
26541;DHT22;14206;50.202;10.948;2023-06-14T13:49:59;25.60;44.20
26541;DHT22;14206;50.202;10.948;2023-06-14T13:52:26;25.50;43.90
26541;DHT22;14206;50.202;10.948;2023-06-14T13:54:53;25.30;45.20
26541;DHT22;14206;50.202;10.948;2023-06-14T13:57:20;25.40;45.50
26541;DHT22;14206;50.202;10.948;2023-06-14T13:59:47;25.50;45.90
26541;DHT22;14206;50.202;10.948;2023-06-14T14:02:14;25.70;46.70
26541;DHT22;14206;50.202;10.948;2023-06-14T14:04:41;25.90;43.90
26541;DHT22;14206;50.202;10.948;2023-06-14T14:07:08;26.00;43.80
26541;DHT22;14206;50.202;10.948;2023-06-14T14:09:35;26.20;44.80
26541;DHT22;14206;50.202;10.948;2023-06-14T14:12:02;26.30;43.30
26541;DHT22;14206;50.202;10.948;2023-06-14T14:14:31;26.20;43.20
26541;DHT22;14206;50.202;10.948;2023-06-14T14:16:59;26.00;44.00
26541;DHT22;14206;50.202;10.948;2023-06-14T14:19:25;25.80;43.80
26541;DHT22;14206;50.202;10.948;2023-06-14T14:21:52;25.80;44.70
26541;DHT22;14206;50.202;10.948;2023-06-14T14:24:20;25.70;44.20
26541;DHT22;14206;50.202;10.948;2023-06-14T14:26:47;25.60;43.70
26541;DHT22;14206;50.202;10.948;2023-06-14T14:29:16;25.40;43.90
26541;DHT22;14206;50.202;10.948;2023-06-14T14:31:43;25.40;44.50
26541;DHT22;14206;50.202;10.948;2023-06-14T14:34:11;25.30;45.00
26541;DHT22;14206;50.202;10.948;2023-06-14T14:36:38;25.20;44.20
26541;DHT22;14206;50.202;10.948;2023-06-14T14:39:09;25.10;44.60
26541;DHT22;14206;50.202;10.948;2023-06-14T14:41:36;25.10;44.90
26541;DHT22;14206;50.202;10.948;2023-06-14T14:44:08;25.00;45.00
26541;DHT22;14206;50.202;10.948;2023-06-14T14:46:35;25.00;44.80
26541;DHT22;14206;50.202;10.948;2023-06-14T14:49:02;25.00;45.30
26541;DHT22;14206;50.202;10.948;2023-06-14T14:51:29;25.10;46.00
26541;DHT22;14206;50.202;10.948;2023-06-14T14:53:56;25.20;46.30
26541;DHT22;14206;50.202;10.948;2023-06-14T14:56:23;25.30;45.40
26541;DHT22;14206;50.202;10.948;2023-06-14T14:58:50;25.50;46.10
26541;DHT22;14206;50.202;10.948;2023-06-14T15:01:17;25.50;45.00
26541;DHT22;14206;50.202;10.948;2023-06-14T15:03:44;25.40;45.40
26541;DHT22;14206;50.202;10.948;2023-06-14T15:06:15;25.30;45.70
26541;DHT22;14206;50.202;10.948;2023-06-14T15:08:42;25.20;46.10
26541;DHT22;14206;50.202;10.948;2023-06-14T15:11:10;25.00;46.00
26541;DHT22;14206;50.202;10.948;2023-06-14T15:13:37;24.80;46.70
26541;DHT22;14206;50.202;10.948;2023-06-14T15:16:04;24.70;46.60
26541;DHT22;14206;50.202;10.948;2023-06-14T15:18:30;24.50;46.70
26541;DHT22;14206;50.202;10.948;2023-06-14T15:20:57;24.30;47.10
26541;DHT22;14206;50.202;10.948;2023-06-14T15:23:24;24.20;46.90
26541;DHT22;14206;50.202;10.948;2023-06-14T15:25:51;24.10;46.80
26541;DHT22;14206;50.202;10.948;2023-06-14T15:28:18;24.00;46.90
26541;DHT22;14206;50.202;10.948;2023-06-14T15:30:45;23.90;47.10
26541;DHT22;14206;50.202;10.948;2023-06-14T15:33:13;23.90;47.90
26541;DHT22;14206;50.202;10.948;2023-06-14T15:35:39;23.90;48.10
26541;DHT22;14206;50.202;10.948;2023-06-14T15:38:07;24.00;47.70
26541;DHT22;14206;50.202;10.948;2023-06-14T15:40:34;24.10;46.80